Time;durP1;ratioP1;P1;durP2;ratioP2;P2;SDS_P1;SDS_P2;PMS_P1;PMS_P2;Temp;Humidity;BMP_temperature;BMP_pressure;BME280_temperature;BME280_humidity;BME280_pressure;Samples;Min_cycle;Max_cycle;Signal;HPM_P1;HPM_P2
2023/01/19 00:00:25;;;;;;;10.32;5.70;;;8.30;94.90;;;;;;5074739;28;20024;-60
2023/01/19 00:02:51;;;;;;;8.30;5.43;;;8.30;95.00;;;;;;5075021;28;20060;-59
2023/01/19 00:05:17;;;;;;;10.15;6.10;;;8.30;95.30;;;;;;5074142;28;20472;-60
2023/01/19 00:07:43;;;;;;;11.30;5.72;;;8.30;94.70;;;;;;5074877;28;20039;-59
2023/01/19 00:10:09;;;;;;;8.25;5.50;;;8.30;94.80;;;;;;5074098;28;20036;-59
2023/01/19 00:12:35;;;;;;;7.13;5.50;;;8.30;95.00;;;;;;5074512;28;20104;-58
2023/01/19 00:15:00;;;;;;;9.10;6.05;;;8.20;94.60;;;;;;5075029;28;20481;-59
2023/01/19 00:17:26;;;;;;;8.02;5.47;;;8.20;94.70;;;;;;5074824;28;20037;-58
2023/01/19 00:19:51;;;;;;;8.27;5.50;;;8.30;94.60;;;;;;5074389;28;20036;-60
2023/01/19 00:22:17;;;;;;;9.23;5.75;;;8.20;94.60;;;;;;5074768;28;20021;-59
2023/01/19 00:24:43;;;;;;;5.97;4.20;;;8.20;94.50;;;;;;5074603;28;20060;-60
2023/01/19 00:27:09;;;;;;;8.57;5.88;;;8.30;95.40;;;;;;5074584;28;20553;-59
2023/01/19 00:29:35;;;;;;;6.55;5.65;;;8.20;94.50;;;;;;5074452;28;20107;-60
2023/01/19 00:32:01;;;;;;;10.48;5.97;;;8.20;94.40;;;;;;5074398;28;20056;-58
2023/01/19 00:34:35;;;;;;;9.07;5.63;;;8.10;94.30;;;;;;5074185;28;20028;-59
2023/01/19 00:37:04;;;;;;;8.88;5.50;;;8.10;94.60;;;;;;5074703;28;20036;-62
2023/01/19 00:39:30;;;;;;;9.30;6.05;;;8.10;94.60;;;;;;5074600;28;20028;-59
2023/01/19 00:44:40;;;;;;;8.15;5.38;;;8.10;94.50;;;;;;5074522;28;20102;-59
2023/01/19 00:47:05;;;;;;;10.98;6.25;;;8.10;94.50;;;;;;5074266;28;20478;-59
2023/01/19 00:49:31;;;;;;;8.75;6.18;;;8.10;94.40;;;;;;5073954;28;20025;-59
2023/01/19 00:51:57;;;;;;;8.82;5.97;;;8.00;94.50;;;;;;5073716;28;20037;-59
2023/01/19 00:54:22;;;;;;;7.78;5.40;;;8.00;94.50;;;;;;5055950;28;20062;-58
2023/01/19 00:56:48;;;;;;;7.72;5.93;;;8.00;94.70;;;;;;5074156;28;20033;-59
2023/01/19 00:59:13;;;;;;;8.25;5.97;;;8.00;94.70;;;;;;5074187;28;20047;-58
2023/01/19 01:01:39;;;;;;;12.43;5.78;;;8.00;94.80;;;;;;5073506;28;20107;-59
2023/01/19 01:04:05;;;;;;;9.95;5.63;;;8.00;94.70;;;;;;5073444;28;20123;-59
2023/01/19 01:06:30;;;;;;;7.13;4.80;;;8.00;94.70;;;;;;5073987;28;20040;-59
2023/01/19 01:08:56;;;;;;;9.48;4.72;;;8.00;94.90;;;;;;5073845;28;20035;-59
2023/01/19 01:11:21;;;;;;;7.68;5.70;;;8.10;95.30;;;;;;5073688;28;20032;-59
2023/01/19 01:13:47;;;;;;;8.27;5.53;;;8.10;94.70;;;;;;5073609;28;20024;-59
2023/01/19 01:16:15;;;;;;;12.38;5.25;;;8.00;94.60;;;;;;5073662;28;20096;-59
2023/01/19 01:18:43;;;;;;;8.57;5.13;;;8.10;94.70;;;;;;5073488;28;20028;-59
2023/01/19 01:21:11;;;;;;;8.80;4.93;;;8.00;94.50;;;;;;5073642;28;20052;-59
2023/01/19 01:23:38;;;;;;;8.27;5.50;;;7.90;94.20;;;;;;5073270;28;20032;-59
2023/01/19 01:26:04;;;;;;;9.02;5.32;;;8.00;94.70;;;;;;5073273;28;20035;-59
2023/01/19 01:28:31;;;;;;;7.25;5.35;;;8.00;94.50;;;;;;5073498;28;20037;-60
2023/01/19 01:30:56;;;;;;;10.48;5.80;;;7.90;94.70;;;;;;5073053;28;20378;-69
2023/01/19 01:33:22;;;;;;;10.63;6.18;;;7.90;94.40;;;;;;5073304;28;20025;-64
2023/01/19 01:35:49;;;;;;;7.63;5.38;;;7.90;94.30;;;;;;5073342;28;20021;-64
2023/01/19 01:38:15;;;;;;;8.82;5.53;;;7.80;94.30;;;;;;5073575;28;20055;-61
2023/01/19 01:40:41;;;;;;;7.82;5.03;;;7.80;94.30;;;;;;5073150;28;20060;-72
2023/01/19 01:43:14;;;;;;;8.27;5.10;;;7.80;94.80;;;;;;5072926;28;20063;-71
2023/01/19 01:45:41;;;;;;;13.80;5.90;;;7.90;94.70;;;;;;5072942;28;20389;-72
2023/01/19 01:48:15;;;;;;;6.78;4.38;;;7.90;94.90;;;;;;5073171;28;20033;-71
2023/01/19 01:53:33;;;;;;;10.23;4.82;;;7.80;94.70;;;;;;5072882;28;20090;-67
2023/01/19 01:56:02;;;;;;;8.80;5.15;;;7.80;94.80;;;;;;5072850;28;20424;-64
2023/01/19 01:58:30;;;;;;;10.50;5.53;;;7.90;95.00;;;;;;5073160;28;20028;-69
2023/01/19 02:03:40;;;;;;;11.02;5.15;;;7.80;94.90;;;;;;5073116;28;20051;-70
2023/01/19 02:06:07;;;;;;;12.75;5.40;;;7.80;94.70;;;;;;5072809;28;20028;-70
2023/01/19 02:14:17;;;;;;;13.02;5.47;;;7.80;94.50;;;;;;5072767;28;20068;-70
2023/01/19 02:16:43;;;;;;;10.88;5.43;;;7.70;94.40;;;;;;5072501;28;20021;-69
2023/01/19 02:19:14;;;;;;;9.95;4.68;;;7.70;94.50;;;;;;5072795;28;20385;-68
2023/01/19 02:21:44;;;;;;;10.32;5.22;;;7.70;94.60;;;;;;5072134;28;20031;-69
2023/01/19 02:24:10;;;;;;;8.45;4.90;;;7.70;94.60;;;;;;5072694;28;20032;-73
2023/01/19 02:26:38;;;;;;;8.75;5.18;;;7.70;94.70;;;;;;5072253;28;20032;-68
2023/01/19 02:29:10;;;;;;;12.20;5.70;;;7.70;94.70;;;;;;5072692;28;20035;-69
2023/01/19 02:31:38;;;;;;;8.90;4.82;;;7.70;94.80;;;;;;5054004;28;20025;-69
2023/01/19 02:34:06;;;;;;;11.35;5.47;;;7.70;94.70;;;;;;5071731;28;20025;-70
2023/01/19 02:36:44;;;;;;;13.88;6.07;;;7.70;94.80;;;;;;5072572;28;20025;-72
2023/01/19 02:39:11;;;;;;;12.68;5.22;;;7.70;94.80;;;;;;5072239;28;20020;-72
2023/01/19 02:41:47;;;;;;;11.40;5.20;;;7.70;94.80;;;;;;5072418;28;20169;-66
2023/01/19 02:44:15;;;;;;;9.35;5.88;;;7.80;95.00;;;;;;5072375;28;20021;-67
2023/01/19 02:46:40;;;;;;;11.23;5.80;;;7.70;95.00;;;;;;5072326;28;20037;-61
2023/01/19 02:49:06;;;;;;;11.10;5.60;;;7.60;95.20;;;;;;5071998;28;20158;-58
2023/01/19 02:51:33;;;;;;;8.55;5.63;;;7.60;95.40;;;;;;5072359;28;20033;-59
2023/01/19 02:54:01;;;;;;;11.90;6.05;;;7.60;95.50;;;;;;5071952;28;20048;-59
2023/01/19 02:56:42;;;;;;;14.32;5.68;;;7.60;95.50;;;;;;5072306;28;20033;-62
2023/01/19 02:59:13;;;;;;;12.35;5.32;;;7.60;95.60;;;;;;5071648;28;20031;-61
2023/01/19 03:01:44;;;;;;;8.20;5.15;;;7.60;95.50;;;;;;5072398;28;20083;-58
2023/01/19 03:04:40;;;;;;;10.07;5.28;;;7.60;95.50;;;;;;5072243;28;20103;-59
2023/01/19 03:07:30;;;;;;;11.32;5.65;;;7.60;95.70;;;;;;5072135;28;20035;-59
2023/01/19 03:10:10;;;;;;;10.00;4.70;;;7.60;95.80;;;;;;5071605;28;20429;-59
2023/01/19 03:12:45;;;;;;;7.25;4.43;;;7.60;95.90;;;;;;5071898;28;20032;-59
2023/01/19 03:15:44;;;;;;;6.97;3.95;;;7.60;95.90;;;;;;5071763;28;20029;-63
2023/01/19 03:18:13;;;;;;;10.07;5.35;;;7.60;95.90;;;;;;5072347;28;20157;-58
2023/01/19 03:20:39;;;;;;;11.52;5.35;;;7.50;95.90;;;;;;5071696;28;20020;-58
2023/01/19 03:23:09;;;;;;;9.50;4.13;;;7.50;95.90;;;;;;5072191;28;20500;-59
2023/01/19 03:25:41;;;;;;;9.43;5.18;;;7.50;96.00;;;;;;5071720;28;20046;-58
2023/01/19 03:28:07;;;;;;;7.57;4.70;;;7.50;96.00;;;;;;5071786;28;20526;-62
2023/01/19 03:30:45;;;;;;;8.65;4.43;;;7.40;96.10;;;;;;5071679;28;20099;-58
2023/01/19 03:33:21;;;;;;;8.32;5.60;;;7.50;96.10;;;;;;5071822;28;20021;-60
2023/01/19 03:35:51;;;;;;;8.65;5.18;;;7.50;96.30;;;;;;5071739;28;20020;-59
2023/01/19 03:38:23;;;;;;;8.98;4.85;;;7.50;96.30;;;;;;5071739;28;20032;-62
2023/01/19 03:40:51;;;;;;;11.27;5.25;;;7.50;96.40;;;;;;5071708;28;20035;-64
2023/01/19 03:43:18;;;;;;;9.07;4.63;;;7.50;96.40;;;;;;5064555;28;20138;-59
2023/01/19 03:45:44;;;;;;;7.68;4.57;;;7.50;96.40;;;;;;5052950;28;20021;-59
2023/01/19 03:48:11;;;;;;;8.10;4.53;;;7.60;96.70;;;;;;5062340;28;20111;-62
2023/01/19 03:50:36;;;;;;;7.85;4.38;;;7.60;96.60;;;;;;5074420;28;20066;-73
2023/01/19 03:53:11;;;;;;;7.55;4.47;;;7.60;96.60;;;;;;5075412;28;20024;-62
2023/01/19 03:55:41;;;;;;;8.93;4.70;;;7.60;96.60;;;;;;5075324;28;20032;-60
2023/01/19 03:58:07;;;;;;;11.75;5.60;;;7.60;96.50;;;;;;5074882;28;20037;-64
2023/01/19 04:00:35;;;;;;;8.77;4.57;;;7.60;96.20;;;;;;5075134;28;20069;-58
2023/01/19 04:03:01;;;;;;;7.85;4.53;;;7.60;96.60;;;;;;5055152;28;20104;-62
2023/01/19 04:05:28;;;;;;;8.95;5.60;;;7.60;96.40;;;;;;5055068;28;20025;-62
2023/01/19 04:07:54;;;;;;;7.95;4.60;;;7.60;96.20;;;;;;5058280;28;20093;-61
2023/01/19 04:10:20;;;;;;;10.20;5.28;;;7.50;96.30;;;;;;5075171;28;20551;-69
2023/01/19 04:12:46;;;;;;;10.98;4.88;;;7.50;96.30;;;;;;5074787;28;20063;-71
2023/01/19 04:15:12;;;;;;;6.50;4.28;;;7.50;96.50;;;;;;5075096;28;20385;-64
2023/01/19 04:17:38;;;;;;;11.27;5.13;;;7.50;96.60;;;;;;5074626;28;20469;-61
2023/01/19 04:20:05;;;;;;;10.07;5.22;;;7.50;96.50;;;;;;5056741;28;20119;-67
2023/01/19 04:22:31;;;;;;;8.95;4.65;;;7.50;96.40;;;;;;5074474;28;20028;-60
2023/01/19 04:24:56;;;;;;;11.40;4.75;;;7.40;96.50;;;;;;5074538;28;20132;-63
2023/01/19 04:27:22;;;;;;;11.35;4.68;;;7.40;96.60;;;;;;5074415;28;20090;-63
2023/01/19 04:29:48;;;;;;;9.82;5.13;;;7.40;96.60;;;;;;5074564;28;20020;-63
2023/01/19 04:32:14;;;;;;;7.50;4.85;;;7.40;96.60;;;;;;5074605;28;20024;-64
2023/01/19 04:34:39;;;;;;;8.77;4.35;;;7.40;96.70;;;;;;5074655;28;20020;-69
2023/01/19 04:37:07;;;;;;;14.77;5.00;;;7.40;96.80;;;;;;5074353;28;20082;-63
2023/01/19 04:39:33;;;;;;;12.25;4.88;;;7.40;96.80;;;;;;5074383;28;20029;-59
2023/01/19 04:41:59;;;;;;;10.00;4.20;;;7.40;96.90;;;;;;5069201;28;20469;-58
2023/01/19 04:44:26;;;;;;;10.50;4.32;;;7.30;96.90;;;;;;5046658;28;20075;-58
2023/01/19 04:46:52;;;;;;;8.32;3.95;;;7.40;96.90;;;;;;5066574;28;20042;-58
2023/01/19 04:49:18;;;;;;;8.52;4.30;;;7.40;97.10;;;;;;5072140;28;20458;-58
2023/01/19 04:51:43;;;;;;;8.00;3.92;;;7.40;96.90;;;;;;5073405;28;20035;-59
2023/01/19 04:54:09;;;;;;;7.50;4.25;;;7.40;96.80;;;;;;5074065;28;20068;-58
2023/01/19 04:56:35;;;;;;;9.88;4.03;;;7.30;96.80;;;;;;5073103;28;20025;-59
2023/01/19 04:59:00;;;;;;;10.85;4.25;;;7.40;97.00;;;;;;5074169;28;20406;-59
2023/01/19 05:01:26;;;;;;;7.78;4.45;;;7.30;96.70;;;;;;5074112;28;20047;-58
2023/01/19 05:03:52;;;;;;;8.52;4.22;;;7.30;96.80;;;;;;5073850;28;20024;-59
2023/01/19 05:06:18;;;;;;;5.32;3.45;;;7.40;96.90;;;;;;5073766;28;20036;-58
2023/01/19 05:08:43;;;;;;;10.55;3.90;;;7.40;97.20;;;;;;5073490;28;20469;-58
2023/01/19 05:11:09;;;;;;;9.20;4.60;;;7.40;96.90;;;;;;5073734;28;20028;-59
2023/01/19 05:13:35;;;;;;;9.50;4.07;;;7.30;96.60;;;;;;5073765;28;20024;-58
2023/01/19 05:16:01;;;;;;;6.75;4.00;;;7.30;96.90;;;;;;5073456;28;20029;-58
2023/01/19 05:18:28;;;;;;;5.88;4.57;;;7.30;96.60;;;;;;5073948;28;20060;-58
2023/01/19 05:20:54;;;;;;;11.98;5.30;;;7.30;96.50;;;;;;5073923;28;20056;-59
2023/01/19 05:23:20;;;;;;;11.75;5.22;;;7.20;96.60;;;;;;5073232;28;20435;-59
2023/01/19 05:25:46;;;;;;;11.35;5.05;;;7.20;96.60;;;;;;5073069;28;20023;-58
2023/01/19 05:28:12;;;;;;;10.25;5.13;;;7.20;96.70;;;;;;5073058;28;20059;-58
2023/01/19 05:30:37;;;;;;;9.93;5.03;;;7.20;96.80;;;;;;5073528;28;20024;-59
2023/01/19 05:33:03;;;;;;;8.82;4.93;;;7.20;97.00;;;;;;5073479;28;20108;-59
2023/01/19 05:35:29;;;;;;;9.05;5.40;;;7.20;96.70;;;;;;5073113;28;20048;-59
2023/01/19 05:37:54;;;;;;;12.32;6.50;;;7.20;96.70;;;;;;5072815;28;20032;-60
2023/01/19 05:40:20;;;;;;;9.65;5.85;;;7.20;96.50;;;;;;5073329;28;20021;-59
2023/01/19 05:42:46;;;;;;;12.18;5.47;;;7.10;96.10;;;;;;5073245;28;20028;-60
2023/01/19 05:45:11;;;;;;;13.63;5.65;;;7.10;96.20;;;;;;5072780;28;20038;-59
2023/01/19 05:47:38;;;;;;;11.82;5.72;;;7.00;96.10;;;;;;5072797;28;20068;-60
2023/01/19 05:50:04;;;;;;;14.10;5.60;;;7.00;96.20;;;;;;5073303;28;20024;-59
2023/01/19 05:52:30;;;;;;;8.95;4.38;;;7.00;96.20;;;;;;5072854;28;20028;-59
2023/01/19 05:54:56;;;;;;;12.60;6.47;;;7.00;96.30;;;;;;5072719;28;20055;-58
2023/01/19 05:57:22;;;;;;;10.98;6.38;;;6.90;96.20;;;;;;5072914;28;20036;-60
2023/01/19 05:59:48;;;;;;;11.23;6.22;;;6.90;96.40;;;;;;5072489;28;20036;-59
2023/01/19 06:02:13;;;;;;;15.35;6.85;;;6.90;96.30;;;;;;5066041;28;20066;-59
2023/01/19 06:04:39;;;;;;;10.98;6.28;;;6.90;96.60;;;;;;5072857;28;20028;-59
2023/01/19 06:07:05;;;;;;;11.20;6.25;;;6.80;96.40;;;;;;5071010;28;20039;-58
2023/01/19 06:09:32;;;;;;;13.52;7.15;;;6.90;96.40;;;;;;5071547;28;20020;-59
2023/01/19 06:11:58;;;;;;;13.30;6.60;;;6.80;96.30;;;;;;5072688;28;20545;-64
2023/01/19 06:14:25;;;;;;;14.68;6.78;;;6.90;96.20;;;;;;5072213;28;20086;-59
2023/01/19 06:16:50;;;;;;;12.07;7.18;;;6.80;96.50;;;;;;5072599;28;20420;-61
2023/01/19 06:19:16;;;;;;;13.55;7.10;;;6.80;96.20;;;;;;5072311;28;20472;-58
2023/01/19 06:21:48;;;;;;;12.98;7.05;;;6.70;96.20;;;;;;5072545;28;20024;-59
2023/01/19 06:24:14;;;;;;;12.98;7.00;;;6.70;96.50;;;;;;5072497;28;20032;-63
2023/01/19 06:26:39;;;;;;;13.13;7.50;;;6.70;96.40;;;;;;5069917;28;20044;-74
2023/01/19 06:29:07;;;;;;;12.80;6.72;;;6.70;96.50;;;;;;5068840;28;20041;-57
2023/01/19 06:31:33;;;;;;;15.98;7.00;;;6.70;96.60;;;;;;5070894;28;20373;-56
2023/01/19 06:33:58;;;;;;;13.68;7.50;;;6.70;96.50;;;;;;5072414;28;20515;-57
2023/01/19 06:36:24;;;;;;;12.77;7.10;;;6.70;96.60;;;;;;5071157;28;20035;-60
2023/01/19 06:38:49;;;;;;;12.18;7.13;;;6.70;96.60;;;;;;5074336;28;21400;-61
2023/01/19 06:41:15;;;;;;;14.57;7.20;;;6.70;96.70;;;;;;5054922;28;20020;-59
2023/01/19 06:43:41;;;;;;;21.02;8.05;;;6.70;96.50;;;;;;5074453;28;20037;-59
2023/01/19 06:46:06;;;;;;;12.18;7.05;;;6.60;96.60;;;;;;5068909;28;20063;-58
2023/01/19 06:48:32;;;;;;;11.93;6.72;;;6.60;96.60;;;;;;5075573;28;20028;-57
2023/01/19 06:50:57;;;;;;;12.18;6.03;;;6.70;96.10;;;;;;5082706;28;20078;-64
2023/01/19 06:53:23;;;;;;;16.38;7.97;;;6.80;96.90;;;;;;5077315;28;20037;-60
2023/01/19 06:55:48;;;;;;;13.55;6.97;;;6.80;96.60;;;;;;5071992;28;20103;-61
2023/01/19 06:58:14;;;;;;;12.65;6.93;;;6.80;96.40;;;;;;5074568;28;20109;-58
2023/01/19 07:00:40;;;;;;;13.57;7.05;;;6.80;96.60;;;;;;5054322;28;20454;-59
2023/01/19 07:03:06;;;;;;;11.73;6.65;;;6.90;96.70;;;;;;5070268;28;20525;-59
2023/01/19 07:05:34;;;;;;;12.25;5.97;;;6.90;96.80;;;;;;5062760;28;20474;-58
2023/01/19 07:08:00;;;;;;;15.15;7.30;;;7.00;97.30;;;;;;5070478;28;20553;-64
2023/01/19 07:10:25;;;;;;;13.32;6.53;;;7.00;97.10;;;;;;5078143;28;20142;-59
2023/01/19 07:12:52;;;;;;;14.93;6.47;;;7.00;97.10;;;;;;5071420;28;20479;-59
2023/01/19 07:15:18;;;;;;;15.75;7.22;;;7.00;97.00;;;;;;5069700;28;20481;-59
2023/01/19 07:17:44;;;;;;;15.63;7.50;;;7.00;96.80;;;;;;5065764;28;20038;-59
2023/01/19 07:20:13;;;;;;;15.35;7.28;;;7.10;96.20;;;;;;5069611;28;20028;-60
2023/01/19 07:22:40;;;;;;;12.95;6.43;;;7.10;97.40;;;;;;5073933;28;20028;-60
2023/01/19 07:25:06;;;;;;;10.43;6.63;;;7.10;97.30;;;;;;5071472;28;20032;-60
2023/01/19 07:27:32;;;;;;;16.42;8.48;;;7.20;96.50;;;;;;5073429;28;20108;-59
2023/01/19 07:29:59;;;;;;;16.35;7.65;;;7.20;95.90;;;;;;5071189;28;20447;-60
2023/01/19 07:32:26;;;;;;;13.60;7.93;;;7.00;96.00;;;;;;5071541;28;20033;-60
2023/01/19 07:34:51;;;;;;;14.10;7.22;;;6.90;96.10;;;;;;5072283;28;20067;-59
2023/01/19 07:37:17;;;;;;;16.02;7.55;;;6.80;96.40;;;;;;5066041;28;20029;-59
2023/01/19 07:39:42;;;;;;;16.42;8.30;;;6.90;96.20;;;;;;5065241;28;20028;-60
2023/01/19 07:42:08;;;;;;;15.85;7.93;;;6.80;96.30;;;;;;5072806;28;20031;-59
2023/01/19 07:44:34;;;;;;;14.77;8.38;;;6.70;96.60;;;;;;5074301;28;20395;-59
2023/01/19 07:46:59;;;;;;;15.77;7.32;;;6.80;96.90;;;;;;5071174;28;20037;-61
2023/01/19 07:49:25;;;;;;;16.63;7.63;;;6.80;96.50;;;;;;5092467;28;20028;-59
2023/01/19 07:51:50;;;;;;;17.50;8.57;;;6.70;97.20;;;;;;5095473;28;20020;-60
2023/01/19 07:54:16;;;;;;;15.90;7.88;;;6.90;96.80;;;;;;5068853;28;20495;-59
2023/01/19 07:56:41;;;;;;;16.15;7.85;;;6.80;97.10;;;;;;5063070;28;20052;-59
2023/01/19 07:59:09;;;;;;;15.73;7.22;;;6.70;97.20;;;;;;5089142;28;20089;-59
2023/01/19 08:01:34;;;;;;;16.17;6.30;;;6.70;97.40;;;;;;5073738;28;20120;-59
2023/01/19 08:04:00;;;;;;;13.95;5.82;;;6.90;98.20;;;;;;5073239;28;20439;-59
2023/01/19 08:06:32;;;;;;;11.98;6.70;;;7.00;98.90;;;;;;5074858;28;20021;-59
2023/01/19 08:08:57;;;;;;;18.15;7.43;;;7.00;98.10;;;;;;5075962;28;20480;-58
2023/01/19 08:11:23;;;;;;;17.45;7.57;;;7.00;97.70;;;;;;5073578;28;20028;-59
2023/01/19 08:13:48;;;;;;;15.45;6.60;;;6.90;97.60;;;;;;5074772;28;20048;-58
2023/01/19 08:16:14;;;;;;;19.27;6.72;;;7.00;98.10;;;;;;5074980;28;20036;-60
2023/01/19 08:18:40;;;;;;;13.45;7.38;;;7.00;97.80;;;;;;5073200;28;20149;-58
2023/01/19 08:21:05;;;;;;;17.40;7.13;;;7.00;97.90;;;;;;5074355;28;20024;-59
2023/01/19 08:23:31;;;;;;;14.75;7.45;;;7.00;97.90;;;;;;5071719;28;20021;-58
2023/01/19 08:25:56;;;;;;;15.23;7.90;;;6.90;97.80;;;;;;5074435;28;20130;-60
2023/01/19 08:28:22;;;;;;;14.70;6.82;;;6.90;97.60;;;;;;5074508;28;20076;-59
2023/01/19 08:30:54;;;;;;;16.52;7.70;;;7.00;98.00;;;;;;5071375;28;20013;-59
2023/01/19 08:33:21;;;;;;;22.75;8.25;;;7.00;97.80;;;;;;5068230;28;20029;-58
2023/01/19 08:35:50;;;;;;;19.83;8.60;;;7.00;97.70;;;;;;5074144;28;20024;-58
2023/01/19 08:38:16;;;;;;;22.75;8.43;;;6.90;97.80;;;;;;5070893;28;20074;-58
2023/01/19 08:40:42;;;;;;;19.38;8.90;;;6.90;97.90;;;;;;5085232;28;20469;-60
2023/01/19 08:43:10;;;;;;;19.55;7.60;;;6.90;97.90;;;;;;5073997;28;20055;-58
2023/01/19 08:45:40;;;;;;;13.50;7.55;;;7.00;97.90;;;;;;5072450;28;20067;-58
2023/01/19 08:48:06;;;;;;;12.65;7.10;;;7.00;97.80;;;;;;5074463;28;20454;-60
2023/01/19 08:50:33;;;;;;;15.95;7.60;;;6.90;97.70;;;;;;5073018;28;20052;-61
2023/01/19 08:53:00;;;;;;;16.67;6.38;;;6.90;98.00;;;;;;5065233;28;20481;-60
2023/01/19 08:55:27;;;;;;;23.75;5.95;;;7.00;98.20;;;;;;5073741;28;20471;-61
2023/01/19 08:57:55;;;;;;;13.48;7.32;;;7.20;99.20;;;;;;5073987;28;20104;-62
2023/01/19 09:00:21;;;;;;;14.35;6.80;;;7.30;98.30;;;;;;5071267;28;20111;-63
2023/01/19 09:02:47;;;;;;;15.13;7.80;;;7.20;98.10;;;;;;5056205;28;20120;-60
2023/01/19 09:05:13;;;;;;;20.38;7.15;;;7.20;97.80;;;;;;5040766;28;20028;-66
2023/01/19 09:07:38;;;;;;;18.85;7.78;;;7.20;97.50;;;;;;5072096;28;20036;-68
2023/01/19 09:10:04;;;;;;;17.83;7.25;;;7.10;97.70;;;;;;5072295;28;20390;-63
2023/01/19 09:12:30;;;;;;;12.52;6.95;;;7.10;97.90;;;;;;5073609;28;20074;-66
2023/01/19 09:14:56;;;;;;;18.02;6.85;;;7.20;97.80;;;;;;5071817;28;20024;-66
2023/01/19 09:17:22;;;;;;;13.50;6.30;;;7.10;97.80;;;;;;5071485;28;20044;-67
2023/01/19 09:19:47;;;;;;;11.10;7.15;;;7.10;97.70;;;;;;5065584;28;20074;-64
2023/01/19 09:22:13;;;;;;;16.50;6.57;;;7.20;98.00;;;;;;5072575;28;20041;-63
2023/01/19 09:24:38;;;;;;;11.63;7.03;;;7.20;98.30;;;;;;5066095;28;20083;-62
2023/01/19 09:27:04;;;;;;;13.07;6.70;;;7.20;97.70;;;;;;5073844;28;20032;-59
2023/01/19 09:29:29;;;;;;;16.85;7.32;;;7.30;97.40;;;;;;5076031;28;20052;-59
2023/01/19 09:31:56;;;;;;;15.30;6.85;;;7.30;97.20;;;;;;5075489;28;20035;-59
2023/01/19 09:34:24;;;;;;;12.52;6.38;;;7.30;97.20;;;;;;5076739;28;20016;-59
2023/01/19 09:36:50;;;;;;;10.52;6.35;;;7.20;97.40;;;;;;5062632;28;20017;-59
2023/01/19 09:39:16;;;;;;;11.23;6.05;;;7.10;97.60;;;;;;5076365;28;20017;-59
2023/01/19 09:41:47;;;;;;;24.17;7.05;;;7.20;97.90;;;;;;5072627;28;20048;-58
2023/01/19 09:44:26;;;;;;;13.73;5.68;;;7.20;97.90;;;;;;5072120;28;20088;-59
2023/01/19 09:46:52;;;;;;;15.27;6.88;;;7.20;98.20;;;;;;5071325;28;20396;-59
2023/01/19 09:49:35;;;;;;;10.95;6.10;;;7.20;97.90;;;;;;5063281;28;20028;-58
2023/01/19 09:52:01;;;;;;;13.90;6.03;;;7.20;98.10;;;;;;5072731;28;20032;-59
2023/01/19 09:54:45;;;;;;;10.63;5.50;;;7.20;98.00;;;;;;5067395;28;20016;-58
2023/01/19 09:57:11;;;;;;;13.38;5.68;;;7.20;98.00;;;;;;5059830;28;21639;-58
2023/01/19 09:59:37;;;;;;;12.57;5.97;;;7.20;98.30;;;;;;5064357;28;20181;-58
2023/01/19 10:02:09;;;;;;;11.23;6.00;;;7.30;98.20;;;;;;5072481;28;20541;-59
2023/01/19 10:04:42;;;;;;;12.90;6.45;;;7.20;98.10;;;;;;5066192;28;20482;-58
2023/01/19 10:07:30;;;;;;;12.52;5.97;;;7.20;97.90;;;;;;5057991;28;20161;-59
2023/01/19 10:10:21;;;;;;;10.45;6.40;;;7.30;97.90;;;;;;5072654;28;20028;-60
2023/01/19 10:13:15;;;;;;;16.38;6.75;;;7.30;98.00;;;;;;5072734;28;20433;-59
2023/01/19 10:15:51;;;;;;;11.25;5.90;;;7.30;97.90;;;;;;5072439;28;20040;-59
2023/01/19 10:18:30;;;;;;;10.80;6.18;;;7.30;97.90;;;;;;5071976;28;20055;-59
2023/01/19 10:21:10;;;;;;;11.35;6.57;;;7.30;98.30;;;;;;5066988;28;20079;-59
2023/01/19 10:23:47;;;;;;;12.82;5.75;;;7.40;97.80;;;;;;5068603;28;20031;-69
2023/01/19 10:26:21;;;;;;;13.50;6.32;;;7.40;97.60;;;;;;5068977;28;20094;-69
2023/01/19 10:28:49;;;;;;;12.63;5.88;;;7.50;97.60;;;;;;5060940;28;20494;-69
2023/01/19 10:31:19;;;;;;;15.90;6.15;;;7.50;97.60;;;;;;5058887;28;20028;-70
2023/01/19 10:33:45;;;;;;;8.82;6.07;;;7.40;98.00;;;;;;5057302;28;20017;-67
2023/01/19 10:36:38;;;;;;;10.55;5.68;;;7.30;98.30;;;;;;5064502;28;20029;-65
2023/01/19 10:39:06;;;;;;;11.95;7.07;;;7.40;98.70;;;;;;5064885;28;20032;-68
2023/01/19 10:41:52;;;;;;;11.95;6.97;;;7.40;98.10;;;;;;5070382;28;20025;-68
2023/01/19 10:44:25;;;;;;;10.10;6.13;;;7.50;98.40;;;;;;5063267;28;20032;-64
2023/01/19 10:46:53;;;;;;;9.45;5.97;;;7.50;97.90;;;;;;5071703;28;20478;-64
2023/01/19 10:49:30;;;;;;;16.17;6.68;;;7.50;97.90;;;;;;5072319;28;20036;-63
2023/01/19 10:51:57;;;;;;;11.68;5.97;;;7.50;98.50;;;;;;5072470;28;20020;-63
2023/01/19 10:54:24;;;;;;;12.30;6.53;;;7.50;98.30;;;;;;5069457;28;20116;-67
2023/01/19 10:56:59;;;;;;;12.77;6.47;;;7.50;98.20;;;;;;5071987;28;20112;-67
2023/01/19 10:59:34;;;;;;;14.27;7.78;;;7.50;98.70;;;;;;5067526;28;20039;-67
2023/01/19 11:02:26;;;;;;;15.95;7.75;;;7.50;98.30;;;;;;5080648;28;20028;-68
2023/01/19 11:05:00;;;;;;;12.32;6.97;;;7.60;96.60;;;;;;5075180;28;20112;-68
2023/01/19 11:07:27;;;;;;;14.85;7.50;;;7.50;97.10;;;;;;5076323;28;20039;-67
2023/01/19 11:10:14;;;;;;;11.63;7.75;;;7.50;97.00;;;;;;5076038;28;20157;-68
2023/01/19 11:12:56;;;;;;;13.27;8.40;;;7.50;97.30;;;;;;5075828;28;20102;-67
2023/01/19 11:15:26;;;;;;;17.05;9.55;;;7.50;97.70;;;;;;5066033;28;20033;-66
2023/01/19 11:17:52;;;;;;;16.88;10.00;;;7.50;97.60;;;;;;5068891;28;20090;-65
2023/01/19 11:20:42;;;;;;;14.15;8.82;;;7.50;98.00;;;;;;5071194;28;20469;-66
2023/01/19 11:23:20;;;;;;;22.67;9.88;;;7.50;97.90;;;;;;5067124;28;20094;-67
2023/01/19 11:25:48;;;;;;;18.50;9.02;;;7.60;98.00;;;;;;5075097;28;20119;-67
2023/01/19 11:28:24;;;;;;;27.40;9.45;;;7.50;99.40;;;;;;5071464;28;20061;-68
2023/01/19 11:31:02;;;;;;;17.05;11.00;;;7.80;99.90;;;;;;5070610;28;20033;-70
2023/01/19 11:33:46;;;;;;;24.45;12.82;;;7.70;99.50;;;;;;5056874;28;20402;-70
2023/01/19 11:36:19;;;;;;;22.33;12.55;;;7.60;99.60;;;;;;5071547;28;20477;-69
2023/01/19 11:38:49;;;;;;;23.60;13.50;;;7.60;99.90;;;;;;5066386;28;20054;-69
2023/01/19 11:41:29;;;;;;;28.92;15.65;;;7.60;99.90;;;;;;5069788;28;20032;-71
2023/01/19 11:44:12;;;;;;;32.17;19.13;;;7.70;99.90;;;;;;5060563;28;20078;-68
2023/01/19 11:46:42;;;;;;;24.98;15.52;;;7.70;99.90;;;;;;5078671;28;20024;-70
2023/01/19 11:49:20;;;;;;;22.98;15.82;;;7.70;99.90;;;;;;5083332;28;20040;-69
2023/01/19 11:52:06;;;;;;;36.65;16.52;;;7.70;99.90;;;;;;5066509;28;20029;-60
2023/01/19 11:54:42;;;;;;;40.20;15.60;;;7.80;99.90;;;;;;5073981;28;20204;-61
2023/01/19 11:57:15;;;;;;;38.80;14.63;;;7.80;99.90;;;;;;5068329;28;20055;-61
2023/01/19 11:59:41;;;;;;;44.95;14.35;;;7.80;99.90;;;;;;5074182;28;20036;-61
2023/01/19 12:02:27;;;;;;;31.58;14.35;;;7.90;99.90;;;;;;5067595;28;20377;-61
2023/01/19 12:04:57;;;;;;;30.85;11.95;;;8.00;99.90;;;;;;5072614;28;20050;-63
2023/01/19 12:07:29;;;;;;;29.10;12.95;;;8.10;99.90;;;;;;5070424;28;20409;-61
2023/01/19 12:10:12;;;;;;;24.67;13.00;;;8.10;99.90;;;;;;5071623;28;20017;-61
2023/01/19 12:12:39;;;;;;;27.80;12.13;;;8.10;99.90;;;;;;5071186;28;20032;-61
2023/01/19 12:15:17;;;;;;;22.13;13.68;;;8.20;99.90;;;;;;5073183;28;20052;-63
2023/01/19 12:17:48;;;;;;;21.55;13.15;;;8.10;99.90;;;;;;5074140;28;20036;-60
2023/01/19 12:20:35;;;;;;;21.58;11.20;;;8.20;99.90;;;;;;5073613;28;20115;-61
2023/01/19 12:23:24;;;;;;;21.35;12.90;;;8.20;99.90;;;;;;5068914;28;20091;-61
2023/01/19 12:26:05;;;;;;;21.92;13.05;;;8.20;99.90;;;;;;5073538;28;20558;-60
2023/01/19 12:28:35;;;;;;;24.45;13.25;;;8.20;99.90;;;;;;5075206;28;20043;-61
2023/01/19 12:31:02;;;;;;;22.33;13.32;;;8.20;99.90;;;;;;5071916;28;20028;-61
2023/01/19 12:33:33;;;;;;;27.48;13.35;;;8.20;99.90;;;;;;5065782;28;20059;-61
2023/01/19 12:36:15;;;;;;;18.52;11.82;;;8.30;99.90;;;;;;5070531;28;20067;-61
2023/01/19 12:38:53;;;;;;;23.85;13.38;;;8.40;99.90;;;;;;5060861;28;20102;-62
2023/01/19 12:41:18;;;;;;;21.00;12.65;;;8.50;99.70;;;;;;5073808;28;20070;-61
2023/01/19 12:43:45;;;;;;;16.30;10.15;;;8.50;99.40;;;;;;5071859;28;20029;-61
2023/01/19 12:46:30;;;;;;;22.42;12.93;;;8.60;99.90;;;;;;5079856;28;20021;-61
2023/01/19 12:49:05;;;;;;;18.55;11.85;;;8.50;98.60;;;;;;5087482;28;20056;-62
2023/01/19 12:51:31;;;;;;;24.55;15.75;;;8.50;98.50;;;;;;5094309;28;20370;-60
2023/01/19 12:53:58;;;;;;;30.10;17.25;;;8.40;97.80;;;;;;5084288;28;20028;-60
2023/01/19 12:56:33;;;;;;;29.42;17.88;;;8.40;97.70;;;;;;5053780;28;20401;-60
2023/01/19 12:58:59;;;;;;;29.80;19.02;;;8.20;98.20;;;;;;5067831;28;20465;-61
2023/01/19 13:01:25;;;;;;;29.88;19.58;;;8.20;98.40;;;;;;5072426;28;20022;-59
2023/01/19 13:04:30;;;;;;;29.20;15.98;;;8.20;98.40;;;;;;5071826;28;20313;-60
2023/01/19 13:07:09;;;;;;;22.20;15.80;;;8.30;99.00;;;;;;5053737;28;20111;-59
2023/01/19 13:09:36;;;;;;;29.08;19.95;;;8.30;99.40;;;;;;5072529;28;20017;-60
2023/01/19 13:12:20;;;;;;;27.73;19.58;;;8.30;98.30;;;;;;5062094;28;20032;-60